Time;durP1;ratioP1;P1;durP2;ratioP2;P2;SDS_P1;SDS_P2;PMS_P1;PMS_P2;Temp;Humidity;BMP_temperature;BMP_pressure;BME280_temperature;BME280_humidity;BME280_pressure;Samples;Min_cycle;Max_cycle;Signal;HPM_P1;HPM_P2
2021/01/07 00:02:07;;;;;;;57.13;29.32;;;;;;;2.51;85.71;99888.40;1641614;83;26471;-80
2021/01/07 00:04:34;;;;;;;53.75;28.90;;;;;;;2.51;85.65;99886.24;1669823;83;26441;-80
2021/01/07 00:07:02;;;;;;;57.60;28.80;;;;;;;2.54;85.75;99892.07;1669893;83;27400;-80
2021/01/07 00:09:29;;;;;;;57.10;29.27;;;;;;;2.56;85.72;99884.81;1706421;82;25865;-80
2021/01/07 00:11:56;;;;;;;57.40;28.85;;;;;;;2.57;85.66;99886.95;1644436;84;25797;-80
2021/01/07 00:14:24;;;;;;;56.35;30.37;;;;;;;2.59;85.53;99879.72;1672877;83;25824;-80
2021/01/07 00:16:51;;;;;;;51.65;29.02;;;;;;;2.58;85.52;99878.88;1675422;83;25779;-79
2021/01/07 00:19:19;;;;;;;55.43;28.80;;;;;;;2.59;85.57;99881.84;1699061;83;27741;-80
2021/01/07 00:21:46;;;;;;;58.00;29.65;;;;;;;2.60;85.60;99878.23;1646278;83;25866;-80
2021/01/07 00:24:14;;;;;;;57.23;30.65;;;;;;;2.63;85.65;99875.78;1676664;83;25401;-80
2021/01/07 00:26:41;;;;;;;59.63;29.70;;;;;;;2.65;85.69;99883.06;1672583;83;26265;-79
2021/01/07 00:29:08;;;;;;;61.37;31.57;;;;;;;2.64;85.54;99877.42;1705694;83;26028;-79
2021/01/07 00:31:36;;;;;;;61.25;32.03;;;;;;;2.64;85.54;99874.78;1651363;83;28638;-80
2021/01/07 00:34:03;;;;;;;62.33;33.25;;;;;;;2.65;85.54;99879.10;1675220;83;25843;-80
2021/01/07 00:36:31;;;;;;;64.37;32.73;;;;;;;2.67;85.58;99882.42;1689794;83;25843;-80
2021/01/07 00:38:58;;;;;;;58.45;31.05;;;;;;;2.68;85.61;99877.45;1708166;83;25761;-80
2021/01/07 00:41:25;;;;;;;63.00;33.80;;;;;;;2.65;85.57;99878.59;1647871;83;25395;-79
2021/01/07 00:43:53;;;;;;;61.88;32.63;;;;;;;2.65;85.71;99877.27;1672726;83;28003;-80
2021/01/07 00:46:20;;;;;;;61.83;31.90;;;;;;;2.67;85.80;99878.45;1685509;83;26600;-80
2021/01/07 00:48:49;;;;;;;64.42;32.73;;;;;;;2.69;85.90;99881.28;1709119;83;25931;-80
2021/01/07 00:51:17;;;;;;;64.27;33.02;;;;;;;2.71;85.88;99874.03;1665513;83;25528;-80
2021/01/07 00:53:46;;;;;;;68.17;33.63;;;;;;;2.72;85.89;99876.99;1670533;84;26005;-80
2021/01/07 00:56:15;;;;;;;72.97;36.05;;;;;;;2.73;85.89;99881.31;1701019;83;27476;-80
2021/01/07 00:58:43;;;;;;;71.90;36.03;;;;;;;2.69;85.75;99877.33;1715930;83;26366;-80
2021/01/07 01:01:11;;;;;;;77.60;38.13;;;;;;;2.69;85.87;99879.97;1646985;83;25416;-79
2021/01/07 01:03:38;;;;;;;73.28;35.80;;;;;;;2.68;85.85;99878.29;1675665;84;26541;-80
2021/01/07 01:06:05;;;;;;;76.90;38.25;;;;;;;2.68;85.87;99884.06;1690915;82;25896;-80
2021/01/07 01:08:32;;;;;;;79.15;37.42;;;;;;;2.66;85.87;99884.23;1705227;82;27524;-79
2021/01/07 01:11:00;;;;;;;79.27;39.10;;;;;;;2.66;85.91;99873.65;1638826;83;26516;-80
2021/01/07 01:13:27;;;;;;;72.80;39.50;;;;;;;2.66;85.91;99877.62;1655095;83;25962;-80
2021/01/07 01:15:55;;;;;;;77.85;39.33;;;;;;;2.66;85.88;99874.97;1678771;84;25745;-80
2021/01/07 01:18:22;;;;;;;82.12;40.20;;;;;;;2.64;85.88;99872.98;1683764;83;26145;-80
2021/01/07 01:20:49;;;;;;;75.35;38.60;;;;;;;2.61;85.83;99875.11;1655274;83;27760;-80
2021/01/07 01:23:16;;;;;;;86.75;40.95;;;;;;;2.58;85.82;99874.92;1668642;84;25827;-80
2021/01/07 01:25:44;;;;;;;81.10;39.58;;;;;;;2.55;85.76;99874.38;1674136;83;25906;-79
2021/01/07 01:28:11;;;;;;;75.10;37.08;;;;;;;2.52;85.69;99879.98;1680715;83;25776;-80
2021/01/07 01:30:39;;;;;;;70.83;34.60;;;;;;;2.48;85.76;99878.12;1683375;83;25808;-80
2021/01/07 01:33:06;;;;;;;62.45;32.83;;;;;;;2.42;85.66;99870.80;1645946;83;27435;-80
2021/01/07 01:35:33;;;;;;;65.28;35.55;;;;;;;2.37;85.54;99870.45;1668039;83;26572;-80
2021/01/07 01:38:00;;;;;;;66.20;34.20;;;;;;;2.30;85.66;99870.71;1700427;83;25859;-80
2021/01/07 01:40:28;;;;;;;62.48;33.53;;;;;;;2.30;85.80;99874.67;1636196;83;26466;-80
2021/01/07 01:42:55;;;;;;;62.05;32.42;;;;;;;2.25;85.67;99876.45;1658628;83;26288;-80
2021/01/07 01:45:23;;;;;;;60.20;32.35;;;;;;;2.21;85.68;99877.73;1680874;83;27210;-81
2021/01/07 01:47:50;;;;;;;55.67;28.77;;;;;;;2.15;85.82;99872.22;1696486;83;25410;-80
2021/01/07 01:50:18;;;;;;;51.70;27.77;;;;;;;2.14;85.83;99882.44;1670905;84;25742;-80
2021/01/07 01:52:45;;;;;;;54.98;28.57;;;;;;;2.08;85.80;99876.44;1667914;84;26469;-80
2021/01/07 01:55:13;;;;;;;56.75;27.95;;;;;;;2.03;85.91;99878.72;1702605;82;25753;-80
2021/01/07 01:57:43;;;;;;;51.37;27.55;;;;;;;2.00;85.93;99873.72;1717525;81;28954;-80
2021/01/07 02:00:12;;;;;;;55.20;29.65;;;;;;;1.99;86.02;99874.20;1668409;82;26137;-80
2021/01/07 02:02:39;;;;;;;50.70;28.65;;;;;;;1.95;85.95;99876.81;1662038;82;25833;-80
2021/01/07 02:05:08;;;;;;;55.03;28.70;;;;;;;1.90;85.93;99872.48;1687391;82;25721;-80
2021/01/07 02:07:39;;;;;;;53.73;28.10;;;;;;;1.84;86.08;99866.45;1719501;82;25854;-80
2021/01/07 02:10:08;;;;;;;55.10;29.18;;;;;;;1.82;86.18;99869.73;1698857;82;27684;-79
2021/01/07 02:12:35;;;;;;;50.28;27.10;;;;;;;1.78;86.19;99869.70;1735227;82;25822;-80
2021/01/07 02:15:04;;;;;;;52.73;27.87;;;;;;;1.75;86.19;99859.45;1693430;83;25852;-79
2021/01/07 02:17:31;;;;;;;50.38;26.57;;;;;;;1.75;86.34;99866.05;1710621;83;26080;-80
2021/01/07 02:19:59;;;;;;;55.05;28.70;;;;;;;1.75;86.29;99866.05;1646668;84;25911;-80
2021/01/07 02:22:26;;;;;;;52.75;26.70;;;;;;;1.77;86.37;99867.21;1664407;83;28558;-80
2021/01/07 02:24:53;;;;;;;49.65;25.85;;;;;;;1.74;86.28;99864.86;1685945;83;25552;-80
2021/01/07 02:27:20;;;;;;;53.35;27.87;;;;;;;1.67;86.33;99861.98;1683764;84;26018;-80
2021/01/07 02:29:48;;;;;;;53.20;28.10;;;;;;;1.64;86.44;99862.77;1644970;84;25970;-80
2021/01/07 02:32:15;;;;;;;54.75;28.35;;;;;;;1.64;86.56;99863.61;1684642;83;25793;-80
2021/01/07 02:34:43;;;;;;;50.28;26.52;;;;;;;1.63;86.58;99867.70;1661364;83;27270;-80
2021/01/07 02:37:10;;;;;;;52.93;27.25;;;;;;;1.62;86.60;99868.69;1705091;82;25872;-80
2021/01/07 02:39:37;;;;;;;50.78;27.48;;;;;;;1.61;86.74;99870.48;1649676;83;25908;-80
2021/01/07 02:42:05;;;;;;;50.98;26.73;;;;;;;1.65;86.84;99869.73;1662798;84;26484;-80
2021/01/07 02:44:32;;;;;;;62.85;32.35;;;;;;;1.68;86.76;99869.41;1685401;83;25852;-80
2021/01/07 02:47:00;;;;;;;50.65;25.00;;;;;;;1.66;86.66;99866.93;1703623;83;27543;-80
2021/01/07 02:49:28;;;;;;;49.95;27.20;;;;;;;1.63;86.62;99863.73;1667617;83;25856;-80
2021/01/07 02:51:55;;;;;;;54.05;28.57;;;;;;;1.61;86.73;99865.69;1659847;83;25990;-80
2021/01/07 02:54:22;;;;;;;46.53;26.15;;;;;;;1.61;86.79;99861.73;1689905;83;26338;-80
2021/01/07 02:56:51;;;;;;;52.53;25.88;;;;;;;1.61;86.75;99864.37;1706876;82;25803;-80
2021/01/07 02:59:19;;;;;;;50.25;25.92;;;;;;;1.60;86.75;99865.38;1649823;83;27641;-79
2021/01/07 03:01:46;;;;;;;48.83;25.10;;;;;;;1.57;86.73;99863.84;1661849;83;26453;-80
2021/01/07 03:04:14;;;;;;;43.13;22.45;;;;;;;1.53;86.76;99853.25;1662565;83;25821;-80
2021/01/07 03:06:41;;;;;;;47.50;26.30;;;;;;;1.49;86.94;99863.28;1705762;83;26401;-80
2021/01/07 03:09:08;;;;;;;46.60;25.00;;;;;;;1.46;86.97;99866.68;1635672;84;26164;-79
2021/01/07 03:11:36;;;;;;;43.75;24.90;;;;;;;1.43;87.01;99871.75;1650862;84;27420;-80
2021/01/07 03:14:04;;;;;;;43.60;24.00;;;;;;;1.44;87.15;99868.16;1690315;83;25454;-80
2021/01/07 03:16:31;;;;;;;46.68;24.80;;;;;;;1.45;87.10;99865.03;1612212;84;25863;-80
2021/01/07 03:18:58;;;;;;;46.18;24.90;;;;;;;1.46;87.18;99863.56;1650313;84;25776;-80
2021/01/07 03:21:26;;;;;;;48.60;23.30;;;;;;;1.47;87.17;99865.72;1630165;84;25830;-79
2021/01/07 03:23:53;;;;;;;41.10;22.77;;;;;;;1.48;87.19;99868.20;1678226;84;27727;-80
2021/01/07 03:26:20;;;;;;;44.15;23.32;;;;;;;1.46;87.14;99865.36;1608831;86;26304;-80
2021/01/07 03:28:48;;;;;;;42.25;23.10;;;;;;;1.46;87.19;99870.16;1647742;84;25874;-80
2021/01/07 03:31:15;;;;;;;37.28;20.43;;;;;;;1.47;87.25;99861.77;1647127;84;25945;-80
2021/01/07 03:33:42;;;;;;;45.28;23.87;;;;;;;1.45;87.27;99868.48;1679383;84;25439;-80
2021/01/07 03:36:10;;;;;;;43.58;21.27;;;;;;;1.42;87.26;99869.27;1633539;84;27538;-80
2021/01/07 03:38:37;;;;;;;47.35;25.08;;;;;;;1.41;87.37;99869.75;1638519;85;25966;-80
2021/01/07 03:41:04;;;;;;;44.08;24.35;;;;;;;1.39;87.37;99866.95;1631705;84;25822;-80
2021/01/07 03:43:32;;;;;;;41.37;22.87;;;;;;;1.38;87.51;99870.06;1654338;85;26263;-80
2021/01/07 03:45:59;;;;;;;43.02;24.77;;;;;;;1.36;87.47;99869.38;1607312;86;25898;-80
2021/01/07 03:48:26;;;;;;;43.85;23.55;;;;;;;1.39;87.59;99863.80;1647389;85;27558;-80
2021/01/07 03:50:54;;;;;;;40.98;22.48;;;;;;;1.40;87.64;99860.67;1643563;85;25733;-80
2021/01/07 03:53:21;;;;;;;39.70;21.33;;;;;;;1.40;87.58;99863.31;1675901;85;25905;-80
2021/01/07 03:55:48;;;;;;;47.10;23.50;;;;;;;1.39;87.56;99869.59;1600483;85;25821;-80
2021/01/07 03:58:16;;;;;;;41.68;22.25;;;;;;;1.41;87.66;99867.62;1640336;85;25874;-79
2021/01/07 04:00:43;;;;;;;34.95;19.52;;;;;;;1.41;87.65;99870.27;1629209;85;27062;-80
2021/01/07 04:03:11;;;;;;;46.45;24.30;;;;;;;1.40;87.59;99867.27;1671318;85;25789;-80
2021/01/07 04:05:38;;;;;;;50.25;26.35;;;;;;;1.38;87.60;99871.38;1603768;86;25869;-80
2021/01/07 04:08:05;;;;;;;45.65;24.52;;;;;;;1.40;87.67;99872.55;1644069;85;26694;-80
2021/01/07 04:10:33;;;;;;;45.60;23.42;;;;;;;1.39;87.71;99866.44;1654160;84;25842;-79
2021/01/07 04:13:00;;;;;;;44.55;22.25;;;;;;;1.41;87.81;99868.95;1680950;84;28495;-80
2021/01/07 04:15:28;;;;;;;41.28;23.47;;;;;;;1.40;87.75;99874.70;1625605;84;25803;-80
2021/01/07 04:17:55;;;;;;;42.25;23.52;;;;;;;1.39;87.72;99872.22;1656574;84;25947;-80
2021/01/07 04:20:22;;;;;;;41.88;23.10;;;;;;;1.40;87.83;99876.02;1652496;84;25906;-79
2021/01/07 04:22:50;;;;;;;42.90;22.32;;;;;;;1.44;87.90;99874.75;1679471;84;25753;-80
2021/01/07 04:25:17;;;;;;;41.55;22.32;;;;;;;1.44;87.75;99878.71;1634141;84;27920;-80
2021/01/07 04:27:45;;;;;;;40.85;21.77;;;;;;;1.42;87.74;99876.71;1640552;86;25849;-80
2021/01/07 04:30:14;;;;;;;41.80;22.52;;;;;;;1.38;87.73;99871.38;1651427;84;25966;-80
2021/01/07 04:32:41;;;;;;;41.73;20.68;;;;;;;1.39;87.77;99876.98;1680322;84;26429;-80
2021/01/07 04:35:09;;;;;;;42.17;21.97;;;;;;;1.39;87.81;99876.19;1622202;84;25440;-80
2021/01/07 04:37:36;;;;;;;47.38;25.15;;;;;;;1.36;87.78;99878.62;1643929;84;27551;-79
2021/01/07 04:40:05;;;;;;;44.05;22.60;;;;;;;1.37;87.88;99882.06;1663467;84;25795;-80
2021/01/07 04:42:32;;;;;;;39.50;22.45;;;;;;;1.39;87.95;99878.82;1678520;84;26405;-79
2021/01/07 04:45:03;;;;;;;47.95;23.38;;;;;;;1.41;87.87;99883.46;1662871;84;26013;-80
2021/01/07 04:47:31;;;;;;;47.05;24.20;;;;;;;1.42;87.92;99879.83;1641956;84;26030;-80
2021/01/07 04:50:00;;;;;;;42.67;23.40;;;;;;;1.43;87.90;99884.14;1660809;84;27512;-80
2021/01/07 04:52:27;;;;;;;44.18;23.70;;;;;;;1.42;87.87;99880.66;1682571;84;25886;-79
2021/01/07 04:54:55;;;;;;;48.13;23.07;;;;;;;1.43;87.87;99882.83;1639222;84;25903;-80
2021/01/07 04:57:23;;;;;;;44.70;23.73;;;;;;;1.44;87.89;99880.52;1683070;84;25762;-80
2021/01/07 04:59:50;;;;;;;43.83;22.40;;;;;;;1.43;87.85;99882.83;1660479;84;25811;-79
2021/01/07 05:02:18;;;;;;;43.48;22.00;;;;;;;1.44;87.90;99880.03;1681398;84;27524;-79
2021/01/07 05:04:51;;;;;;;47.78;23.95;;;;;;;1.46;87.88;99884.67;1612881;84;25984;-80
2021/01/07 05:07:21;;;;;;;48.92;24.23;;;;;;;1.48;87.94;99893.75;1663473;84;25746;-80
2021/01/07 05:10:01;;;;;;;38.53;19.90;;;;;;;1.50;87.89;99891.80;1659717;84;25981;-80
2021/01/07 05:12:28;;;;;;;48.47;23.27;;;;;;;1.50;87.80;99898.39;1678823;84;25896;-79
2021/01/07 05:14:56;;;;;;;41.13;23.05;;;;;;;1.49;87.85;99896.27;1651161;85;27564;-80
2021/01/07 05:17:23;;;;;;;42.85;22.25;;;;;;;1.50;87.83;99903.67;1648055;84;25729;-80
2021/01/07 05:19:50;;;;;;;45.17;24.52;;;;;;;1.52;87.89;99899.08;1668345;83;25779;-80
2021/01/07 05:22:18;;;;;;;43.70;23.25;;;;;;;1.54;87.85;99900.59;1709648;83;26330;-80
2021/01/07 05:24:46;;;;;;;45.98;24.92;;;;;;;1.56;87.76;99897.84;1657426;83;25785;-80
2021/01/07 05:27:17;;;;;;;40.20;22.22;;;;;;;1.53;87.72;99900.27;1671165;83;27710;-80
2021/01/07 05:29:45;;;;;;;50.95;26.27;;;;;;;1.53;87.67;99898.95;1683138;83;25440;-80
2021/01/07 05:32:12;;;;;;;44.48;23.90;;;;;;;1.54;87.76;99903.72;1712650;82;25926;-80
2021/01/07 05:34:50;;;;;;;41.23;22.00;;;;;;;1.57;87.81;99902.13;1647259;83;26475;-80
2021/01/07 05:37:19;;;;;;;43.33;23.67;;;;;;;1.58;87.70;99900.64;1678260;83;26468;-80
2021/01/07 05:39:48;;;;;;;46.13;25.65;;;;;;;1.58;87.59;99903.80;1710670;83;27071;-80
2021/01/07 05:42:16;;;;;;;42.13;23.70;;;;;;;1.57;87.66;99904.76;1718490;82;26152;-80
2021/01/07 05:44:48;;;;;;;45.60;26.00;;;;;;;1.60;87.65;99902.32;1661144;84;25847;-80
2021/01/07 05:47:28;;;;;;;49.23;24.80;;;;;;;1.61;87.67;99908.77;1662560;84;25608;-80
2021/01/07 05:49:57;;;;;;;44.80;23.90;;;;;;;1.64;87.65;99905.84;1676629;82;25475;-80
2021/01/07 05:52:29;;;;;;;37.73;21.20;;;;;;;1.64;87.46;99912.44;1712541;82;27587;-80
2021/01/07 05:55:07;;;;;;;41.28;21.68;;;;;;;1.69;87.47;99910.69;1787459;79;25658;-79
2021/01/07 05:57:38;;;;;;;43.63;22.27;;;;;;;1.60;87.37;99904.96;1738156;81;25430;-80
2021/01/07 06:00:09;;;;;;;45.12;25.55;;;;;;;1.61;87.48;99905.28;1736119;81;27343;-80
2021/01/07 06:02:41;;;;;;;41.83;23.38;;;;;;;1.60;87.55;99901.00;1760584;80;25717;-80
2021/01/07 06:05:12;;;;;;;43.98;24.50;;;;;;;1.59;87.52;99898.84;1727045;80;25803;-80
2021/01/07 06:07:41;;;;;;;43.40;23.07;;;;;;;1.61;87.63;99902.16;1740772;80;25849;-80
2021/01/07 06:10:10;;;;;;;40.08;21.45;;;;;;;1.63;87.54;99912.56;1739000;80;25819;-80
2021/01/07 06:12:38;;;;;;;42.65;23.07;;;;;;;1.60;87.44;99911.56;1766724;80;26662;-79
2021/01/07 06:15:09;;;;;;;42.75;24.45;;;;;;;1.57;87.50;99910.04;1734556;81;26091;-80
2021/01/07 06:17:45;;;;;;;43.65;23.10;;;;;;;1.62;87.58;99906.97;1782172;79;25794;-80
2021/01/07 06:20:18;;;;;;;47.67;24.12;;;;;;;1.59;87.65;99913.36;1737252;81;25915;-80
2021/01/07 06:22:55;;;;;;;42.30;22.22;;;;;;;1.57;87.51;99917.95;1739952;81;27235;-80
2021/01/07 06:25:24;;;;;;;49.15;24.75;;;;;;;1.56;87.61;99914.48;1746891;81;25838;-80
2021/01/07 06:27:53;;;;;;;50.65;25.48;;;;;;;1.61;87.78;99921.12;1744435;79;25938;-80
2021/01/07 06:30:29;;;;;;;53.78;24.20;;;;;;;1.64;87.72;99919.05;1725995;81;25800;-80
2021/01/07 06:33:08;;;;;;;48.55;24.52;;;;;;;1.64;87.74;99921.69;1713023;82;25923;-80
2021/01/07 06:35:40;;;;;;;47.65;24.50;;;;;;;1.66;87.67;99921.05;1742566;81;27679;-79
2021/01/07 06:38:10;;;;;;;49.00;24.80;;;;;;;1.65;87.59;99925.16;1687069;81;25397;-80
2021/01/07 06:40:42;;;;;;;46.70;24.40;;;;;;;1.65;87.62;99925.16;1706734;82;26037;-80
2021/01/07 06:43:19;;;;;;;40.12;20.37;;;;;;;1.66;87.63;99928.12;1767028;80;25814;-80
2021/01/07 06:45:52;;;;;;;48.70;24.57;;;;;;;1.64;87.53;99934.88;1741237;80;25893;-80
2021/01/07 06:48:32;;;;;;;44.50;24.07;;;;;;;1.63;87.61;99934.52;1669754;81;27549;-80
2021/01/07 06:51:02;;;;;;;47.83;24.97;;;;;;;1.61;87.53;99935.64;1693919;82;25841;-80
2021/01/07 06:53:36;;;;;;;44.20;23.80;;;;;;;1.60;87.61;99947.19;1733582;81;26330;-80
2021/01/07 06:56:22;;;;;;;47.35;24.67;;;;;;;1.61;87.69;99943.08;1736145;81;26154;-80
2021/01/07 06:58:51;;;;;;;40.30;21.60;;;;;;;1.62;87.63;99946.56;1664999;83;25845;-80
2021/01/07 07:01:19;;;;;;;42.55;22.20;;;;;;;1.61;87.62;99952.31;1708090;82;27546;-80
2021/01/07 07:03:51;;;;;;;40.28;20.85;;;;;;;1.59;87.61;99956.91;1759007;80;25951;-81
2021/01/07 07:06:25;;;;;;;38.83;21.50;;;;;;;1.58;87.59;99954.75;1745375;81;25847;-80
2021/01/07 07:08:53;;;;;;;40.25;20.43;;;;;;;1.62;87.64;99950.52;1633362;84;25924;-80
2021/01/07 07:11:32;;;;;;;41.58;23.40;;;;;;;1.62;87.60;99957.11;1679065;83;26224;-80
2021/01/07 07:14:03;;;;;;;41.00;23.80;;;;;;;1.58;87.53;99957.91;1682021;83;28299;-80
2021/01/07 07:16:32;;;;;;;;;;;;;;;1.59;87.58;99956.91;1688611;83;25865;-80
2021/01/07 07:18:59;;;;;;;43.13;22.40;;;;;;;1.59;87.66;99964.83;1632360;85;25895;-80
2021/01/07 07:21:29;;;;;;;45.10;23.52;;;;;;;1.58;87.71;99963.19;1673342;84;25845;-80
2021/01/07 07:24:07;;;;;;;41.58;20.82;;;;;;;1.58;87.62;99963.19;1685833;84;25946;-80
2021/01/07 07:26:38;;;;;;;40.35;20.77;;;;;;;1.60;87.68;99970.47;1689743;84;28491;-80
2021/01/07 07:29:12;;;;;;;40.78;21.50;;;;;;;1.60;87.59;99968.31;1685444;84;26042;-80
2021/01/07 07:31:44;;;;;;;43.15;23.75;;;;;;;1.58;87.55;99979.83;1660654;84;25813;-80
2021/01/07 07:34:13;;;;;;;39.08;21.07;;;;;;;1.60;87.68;99977.55;1658724;83;26116;-80
2021/01/07 07:36:42;;;;;;;45.05;26.00;;;;;;;1.64;87.69;99986.84;1691939;82;25768;-80
2021/01/07 07:39:10;;;;;;;46.73;25.70;;;;;;;1.65;87.72;99991.96;1714463;82;27597;-80
2021/01/07 07:41:45;;;;;;;44.40;25.55;;;;;;;1.69;87.72;99987.24;1668084;84;26298;-79
2021/01/07 07:44:14;;;;;;;44.42;25.35;;;;;;;1.72;87.69;99987.77;1704698;82;25895;-80
2021/01/07 07:46:43;;;;;;;45.12;24.90;;;;;;;1.73;87.64;99991.25;1686271;83;25911;-79
2021/01/07 07:49:10;;;;;;;48.48;27.52;;;;;;;1.73;87.58;99994.73;1701705;82;25729;-80
2021/01/07 07:51:39;;;;;;;52.73;27.98;;;;;;;1.73;87.51;99996.53;1680646;83;28259;-80
2021/01/07 07:54:09;;;;;;;43.23;24.77;;;;;;;1.74;87.63;99996.38;1701316;82;26478;-81
2021/01/07 07:56:38;;;;;;;46.20;24.95;;;;;;;1.74;87.51;99993.73;1673093;82;26636;-80
2021/01/07 07:59:08;;;;;;;48.13;25.12;;;;;;;1.75;87.63;99999.38;1715140;81;26215;-79
2021/01/07 08:01:49;;;;;;;46.88;24.63;;;;;;;1.77;87.55;100000.06;1689688;83;25902;-80
2021/01/07 08:04:20;;;;;;;39.75;21.65;;;;;;;1.77;87.54;99997.91;1706623;83;27395;-80
2021/01/07 08:06:50;;;;;;;45.50;23.73;;;;;;;1.77;87.57;100004.50;1661157;83;25849;-79
2021/01/07 08:09:20;;;;;;;47.83;24.85;;;;;;;1.76;87.30;100008.10;1693002;83;25921;-80
2021/01/07 08:11:54;;;;;;;43.05;22.73;;;;;;;1.75;87.42;100005.14;1679688;83;25800;-79
2021/01/07 08:14:28;;;;;;;46.65;24.50;;;;;;;1.79;87.48;100014.43;1691128;84;25874;-80
2021/01/07 08:16:58;;;;;;;43.80;23.18;;;;;;;1.77;87.45;100017.22;1722472;82;27533;-80
2021/01/07 08:19:33;;;;;;;;;;;;;;;1.80;87.65;100010.31;1676905;85;26487;-81
2021/01/07 08:22:02;;;;;;;34.45;18.98;;;;;;;1.77;87.30;100013.27;1708050;82;26414;-80
2021/01/07 08:24:30;;;;;;;42.98;23.55;;;;;;;1.74;87.42;100014.86;1691057;84;25836;-80
2021/01/07 08:27:16;;;;;;;41.95;22.20;;;;;;;1.72;87.40;100013.34;1644940;84;25986;-81
2021/01/07 08:29:47;;;;;;;44.13;24.12;;;;;;;1.70;87.40;100013.97;1668391;84;27558;-80
2021/01/07 08:32:18;;;;;;;43.63;22.53;;;;;;;1.71;87.57;100012.49;1662215;84;25800;-80
2021/01/07 08:34:47;;;;;;;42.65;23.40;;;;;;;1.74;87.51;100010.90;1686884;84;25920;-80
2021/01/07 08:37:21;;;;;;;40.17;22.95;;;;;;;1.73;87.51;100011.05;1650687;84;25888;-80
2021/01/07 08:39:47;;;;;;;48.83;24.60;;;;;;;1.74;87.46;100012.70;1668220;84;25890;-80
2021/01/07 08:42:16;;;;;;;40.45;22.17;;;;;;;1.71;87.47;100016.97;1660790;84;26532;-80
2021/01/07 08:44:44;;;;;;;44.63;23.12;;;;;;;1.73;87.48;100024.25;1651459;84;25418;-80
2021/01/07 08:47:24;;;;;;;42.55;23.50;;;;;;;1.73;87.44;100020.30;1645933;84;25822;-80
2021/01/07 08:50:19;;;;;;;45.55;25.75;;;;;;;1.81;87.52;100015.11;1829589;77;25344;-80
2021/01/07 08:52:51;;;;;;;48.35;25.40;;;;;;;1.75;87.53;100034.18;1794211;78;25795;-80
2021/01/07 08:55:21;;;;;;;37.23;20.37;;;;;;;1.73;87.50;100023.77;1785968;78;26613;-80
2021/01/07 08:57:49;;;;;;;;;;;;;;;1.74;87.58;100025.42;1803277;78;26350;-80
2021/01/07 09:00:19;;;;;;;37.63;19.40;;;;;;;1.73;87.55;100025.57;1773309;79;25836;-80
2021/01/07 09:02:48;;;;;;;40.08;20.68;;;;;;;1.70;87.61;100029.81;1800406;78;25371;-80
2021/01/07 09:05:18;;;;;;;43.70;23.80;;;;;;;1.67;87.55;100028.28;1767960;78;25936;-81
2021/01/07 09:07:46;;;;;;;45.78;25.82;;;;;;;1.67;87.67;100027.47;1729723;80;27320;-80
2021/01/07 09:10:13;;;;;;;50.12;23.50;;;;;;;1.70;87.77;100025.84;1749086;78;25859;-80
2021/01/07 09:12:42;;;;;;;45.73;25.45;;;;;;;1.72;87.75;100020.77;1753116;78;26034;-80
2021/01/07 09:15:26;;;;;;;48.38;25.95;;;;;;;1.76;87.79;100021.30;1797056;78;25885;-80
2021/01/07 09:17:57;;;;;;;46.02;26.15;;;;;;;1.77;87.80;100023.82;1768811;78;25814;-80
2021/01/07 09:20:33;;;;;;;50.70;24.85;;;;;;;1.79;87.68;100017.91;1746337;78;28761;-80
2021/01/07 09:23:10;;;;;;;41.68;22.45;;;;;;;1.78;87.58;100029.91;1793633;78;25829;-80
2021/01/07 09:25:38;;;;;;;46.28;22.42;;;;;;;1.75;87.58;100024.94;1751852;80;26368;-80
2021/01/07 09:28:07;;;;;;;42.65;22.85;;;;;;;1.77;87.70;100023.82;1715953;81;25942;-80
2021/01/07 09:30:35;;;;;;;40.43;22.30;;;;;;;1.80;87.77;100020.03;1698765;81;25752;-80
2021/01/07 09:33:03;;;;;;;39.58;20.92;;;;;;;1.84;87.87;100024.89;1741889;81;27532;-80
2021/01/07 09:35:31;;;;;;;42.03;23.38;;;;;;;1.86;87.89;100021.61;1735473;81;25759;-80
2021/01/07 09:38:00;;;;;;;48.45;26.73;;;;;;;1.88;87.87;100024.13;1722897;80;25744;-80
2021/01/07 09:40:29;;;;;;;40.43;20.62;;;;;;;1.92;88.01;100017.58;1719165;80;25881;-80
2021/01/07 09:42:56;;;;;;;42.67;22.65;;;;;;;1.94;87.76;100022.22;1739424;80;25737;-80
2021/01/07 09:45:24;;;;;;;37.80;20.82;;;;;;;1.95;87.84;100024.70;1718720;81;28009;-80
2021/01/07 09:47:51;;;;;;;42.95;22.70;;;;;;;1.97;87.75;100023.23;1754743;80;25968;-80
2021/01/07 09:50:20;;;;;;;43.55;21.52;;;;;;;1.99;87.81;100020.79;1736674;81;25873;-80
2021/01/07 09:52:48;;;;;;;39.70;21.07;;;;;;;2.03;87.90;100020.03;1780944;78;25885;-80
2021/01/07 09:55:15;;;;;;;49.03;24.30;;;;;;;2.01;87.72;100016.19;1793441;79;25910;-80
2021/01/07 09:57:48;;;;;;;47.50;25.82;;;;;;;2.00;87.66;100017.19;1765877;80;29609;-80
2021/01/07 10:00:13;;;;;;;43.83;23.75;;;;;;;2.05;87.70;100022.03;1793975;78;25428;-80
2021/01/07 10:02:40;;;;;;;43.63;22.55;;;;;;;2.05;87.60;100016.75;1785574;78;25948;-80
2021/01/07 10:05:09;;;;;;;41.35;22.17;;;;;;;2.09;87.64;100013.67;1783624;78;25766;-80
2021/01/07 10:07:36;;;;;;;43.40;24.55;;;;;;;2.09;87.57;100016.80;1731090;80;25851;-81
2021/01/07 10:10:05;;;;;;;46.37;24.70;;;;;;;2.08;87.47;100017.76;1730506;81;27605;-80
2021/01/07 10:12:32;;;;;;;60.12;36.33;;;;;;;2.09;87.46;100020.76;1760356;80;26550;-80
2021/01/07 10:15:00;;;;;;;42.45;22.55;;;;;;;2.08;87.33;100022.56;1743309;81;25824;-80
2021/01/07 10:17:28;;;;;;;43.48;22.93;;;;;;;2.05;87.14;100016.23;1703907;81;26053;-80
2021/01/07 10:19:55;;;;;;;43.17;24.85;;;;;;;2.01;87.33;100014.88;1720594;82;26229;-80
2021/01/07 10:22:24;;;;;;;52.10;24.00;;;;;;;2.04;87.46;100008.47;1749938;81;27528;-80
2021/01/07 10:24:55;;;;;;;54.42;29.25;;;;;;;2.04;87.29;100011.11;1754366;81;26412;-80
2021/01/07 10:27:21;;;;;;;49.05;28.15;;;;;;;2.02;87.49;100019.19;1689732;81;26636;-79
2021/01/07 10:29:49;;;;;;;90.67;58.28;;;;;;;2.09;87.64;100008.39;1735333;81;26189;-80
2021/01/07 10:32:18;;;;;;;75.50;53.58;;;;;;;2.14;87.67;100014.52;1719713;82;25800;-80
2021/01/07 10:34:49;;;;;;;51.35;31.90;;;;;;;2.18;87.34;100009.31;1743592;81;27535;-80
2021/01/07 10:37:25;;;;;;;61.10;34.50;;;;;;;2.23;87.19;100004.40;1816814;77;25833;-80
2021/01/07 10:39:54;;;;;;;53.73;32.23;;;;;;;2.17;87.15;100011.12;1745277;78;25769;-80
2021/01/07 10:42:23;;;;;;;45.15;26.68;;;;;;;2.19;87.10;100012.28;1764961;78;27320;-79
2021/01/07 10:44:52;;;;;;;45.05;24.72;;;;;;;2.20;87.22;100010.00;1791987;78;26536;-80
2021/01/07 10:47:20;;;;;;;55.40;26.05;;;;;;;2.20;87.07;100013.45;1751584;78;25902;-80
2021/01/07 10:49:48;;;;;;;48.38;28.02;;;;;;;2.23;87.19;100008.36;1743580;80;26046;-80
2021/01/07 10:53:03;;;;;;;46.40;24.82;;;;;;;2.23;87.21;100008.36;1792450;78;25848;-80
2021/01/07 10:55:33;;;;;;;42.58;20.95;;;;;;;2.27;87.20;100014.53;1790064;79;27737;-80
2021/01/07 10:58:45;;;;;;;33.90;18.23;;;;;;;2.25;86.91;100008.56;1757280;80;25751;-80
2021/01/07 11:01:47;;;;;;;33.42;19.57;;;;;;;2.23;86.77;100008.36;1691356;84;25889;-80
2021/01/07 11:04:42;;;;;;;38.95;22.00;;;;;;;2.21;86.77;100010.33;1778846;80;25845;-80
2021/01/07 11:07:36;;;;;;;41.73;22.17;;;;;;;2.16;86.81;100005.98;1808075;78;26132;-80
2021/01/07 11:10:06;;;;;;;41.83;23.52;;;;;;;2.14;86.91;100003.95;1774687;78;27524;-80
2021/01/07 11:12:42;;;;;;;32.15;18.52;;;;;;;2.15;86.94;100006.95;1769281;80;25825;-80
2021/01/07 11:15:16;;;;;;;106.60;50.17;;;;;;;2.13;86.85;100000.99;1760396;80;25790;-80
2021/01/07 11:17:51;;;;;;;122.75;60.83;;;;;;;2.11;86.94;99998.50;1789909;79;25872;-80
2021/01/07 11:20:24;;;;;;;121.53;60.58;;;;;;;2.10;87.03;100002.59;1761764;78;26433;-80
2021/01/07 11:22:51;;;;;;;138.28;75.75;;;;;;;2.07;86.62;99997.62;1766613;80;27627;-81
2021/01/07 11:25:19;;;;;;;69.50;38.65;;;;;;;2.05;86.73;99998.27;1745212;80;26449;-80
2021/01/07 11:27:48;;;;;;;108.75;62.13;;;;;;;2.05;86.76;99998.27;1771182;80;25828;-80
2021/01/07 11:30:17;;;;;;;80.70;49.25;;;;;;;2.05;86.93;99999.58;1730663;80;25948;-80
2021/01/07 11:32:46;;;;;;;58.80;35.88;;;;;;;2.06;86.83;100007.83;1735876;79;26020;-80
2021/01/07 11:35:14;;;;;;;52.85;31.65;;;;;;;2.06;87.01;100001.23;1737333;81;28585;-80
2021/01/07 11:38:04;;;;;;;44.70;26.95;;;;;;;2.07;87.14;99999.78;1735624;81;26510;-80